Time;durP1;ratioP1;P1;durP2;ratioP2;P2;SDS_P1;SDS_P2;PMS_P1;PMS_P2;Temp;Humidity;BMP_temperature;BMP_pressure;BME280_temperature;BME280_humidity;BME280_pressure;Samples;Min_cycle;Max_cycle;Signal;HPM_P1;HPM_P2
2022/06/07 15:25:39;;;;;;;17.23;7.70;;;21.60;99.90;;;;;;4973999;28;20487;-88
2022/06/07 15:44:37;;;;;;;47.33;18.30;;;20.20;99.90;;;;;;5003850;28;20235;-91
2022/06/07 15:47:03;;;;;;;26.57;15.37;;;20.90;99.90;;;;;;4978649;28;20185;-90
2022/06/07 15:49:30;;;;;;;20.47;13.97;;;21.30;99.90;;;;;;4978272;28;20197;-91
2022/06/07 15:51:55;;;;;;;21.90;14.87;;;21.40;99.90;;;;;;4978361;28;20693;-93
2022/06/07 15:54:22;;;;;;;19.77;13.63;;;21.50;99.90;;;;;;4978492;28;20233;-92
2022/06/07 15:56:49;;;;;;;17.07;12.60;;;21.40;99.90;;;;;;4978284;28;20193;-91
2022/06/07 15:59:15;;;;;;;16.83;13.27;;;21.30;99.90;;;;;;4978144;28;20227;-92
2022/06/07 16:01:41;;;;;;;15.93;13.57;;;21.00;99.90;;;;;;4978990;28;20578;-93
2022/06/07 16:04:09;;;;;;;18.63;13.67;;;20.90;99.90;;;;;;4977601;28;20234;-91
2022/06/07 16:06:38;;;;;;;16.80;12.83;;;20.90;99.90;;;;;;4978522;28;20185;-91
2022/06/07 16:09:06;;;;;;;14.87;10.70;;;21.30;99.90;;;;;;4978550;28;20181;-91
2022/06/07 16:11:32;;;;;;;10.53;8.70;;;21.80;99.90;;;;;;4979228;28;20182;-91
2022/06/07 16:13:59;;;;;;;9.33;8.37;;;22.20;99.90;;;;;;4977466;28;20662;-91
2022/06/07 16:16:28;;;;;;;8.40;7.30;;;22.40;99.90;;;;;;4978288;28;20203;-90
2022/06/07 16:18:55;;;;;;;7.93;6.13;;;22.00;99.90;;;;;;4977946;28;20255;-90
2022/06/07 16:21:22;;;;;;;9.90;7.00;;;21.40;99.90;;;;;;4978675;28;20213;-90
2022/06/07 16:23:49;;;;;;;7.07;6.33;;;21.10;99.90;;;;;;4985679;28;20194;-91
2022/06/07 16:26:21;;;;;;;5.80;5.20;;;21.70;99.90;;;;;;4988345;28;20292;-91
2022/06/07 19:09:04;;;;;;;2.60;1.20;;;22.20;99.90;;;;;;6050622;23;20182;31
2022/06/07 19:11:34;;;;;;;1.60;1.00;;;22.00;99.90;;;;;;4971498;28;20228;-91
2022/06/07 19:14:00;;;;;;;1.60;1.10;;;21.80;99.90;;;;;;4972290;28;20195;-90
2022/06/07 19:16:28;;;;;;;2.43;1.10;;;21.70;99.90;;;;;;4971550;28;20193;-89
2022/06/07 19:18:54;;;;;;;3.30;1.50;;;21.70;99.90;;;;;;4971967;28;20311;-89
2022/06/07 19:21:33;;;;;;;3.70;1.20;;;21.70;99.90;;;;;;4972206;28;20192;-89
2022/06/07 19:24:00;;;;;;;1.33;0.97;;;21.60;99.90;;;;;;4972435;28;20213;-87
2022/06/07 19:26:27;;;;;;;1.63;0.97;;;21.70;99.90;;;;;;4970842;28;20180;-87
2022/06/07 19:28:54;;;;;;;3.63;1.47;;;21.80;99.90;;;;;;4956140;29;20182;-88
2022/06/07 19:31:21;;;;;;;1.23;1.00;;;21.80;99.90;;;;;;4971400;28;20252;-88
2022/06/07 19:33:47;;;;;;;2.23;1.10;;;21.80;99.90;;;;;;4971482;28;20186;-87
2022/06/07 19:36:15;;;;;;;2.77;1.00;;;21.70;99.90;;;;;;4971206;28;20184;-88
2022/06/07 19:38:41;;;;;;;1.40;0.90;;;21.70;99.90;;;;;;4951176;29;20309;-87
2022/06/07 19:41:07;;;;;;;2.17;0.97;;;21.60;99.90;;;;;;4936252;29;20322;-88
2022/06/07 19:43:32;;;;;;;1.97;0.97;;;21.60;99.90;;;;;;4952161;29;20628;-86
2022/06/07 19:45:59;;;;;;;3.43;1.40;;;21.70;99.90;;;;;;4952361;28;20187;-88
2022/06/07 19:48:25;;;;;;;3.50;0.93;;;21.70;99.90;;;;;;4950838;29;20201;-88
2022/06/07 19:50:59;;;;;;;2.40;1.07;;;21.70;99.90;;;;;;4951819;29;20178;-87
2022/06/07 19:53:28;;;;;;;3.20;1.10;;;21.80;99.90;;;;;;4951947;29;20231;-87
2022/06/07 19:55:56;;;;;;;3.03;1.10;;;21.70;99.90;;;;;;4950815;29;20640;-87
2022/06/07 19:58:22;;;;;;;3.57;1.67;;;21.80;99.90;;;;;;4918789;29;20222;-87
2022/06/07 20:00:47;;;;;;;3.07;1.47;;;21.70;99.90;;;;;;4919899;29;20209;-88
2022/06/07 20:03:13;;;;;;;3.33;1.70;;;21.60;99.90;;;;;;4919941;29;20193;-88
2022/06/07 20:05:40;;;;;;;2.43;1.53;;;21.60;99.90;;;;;;4919865;29;20185;-88
2022/06/07 20:08:09;;;;;;;3.87;1.30;;;21.60;99.90;;;;;;4935661;29;20191;-87
2022/06/07 20:10:38;;;;;;;4.07;1.73;;;21.50;99.90;;;;;;4919402;29;20207;-87
2022/06/07 20:13:13;;;;;;;4.40;1.43;;;21.70;99.90;;;;;;4935946;29;20227;-88
2022/06/07 20:15:41;;;;;;;3.50;1.60;;;21.60;99.90;;;;;;4935673;29;20197;-87
2022/06/07 20:18:08;;;;;;;2.60;1.60;;;21.60;99.90;;;;;;4936374;29;20692;-88
2022/06/07 20:20:35;;;;;;;5.40;1.60;;;21.70;99.90;;;;;;4936675;29;20213;-88
2022/06/07 20:23:03;;;;;;;3.47;1.60;;;21.60;99.90;;;;;;4920625;29;20273;-87
2022/06/07 20:25:30;;;;;;;3.40;1.90;;;21.60;99.90;;;;;;4934929;29;20175;-88
2022/06/07 20:27:55;;;;;;;4.77;2.20;;;21.60;99.90;;;;;;4919183;29;20277;-88
2022/06/07 20:30:25;;;;;;;4.83;1.70;;;21.50;99.90;;;;;;4935230;29;20209;-88
2022/06/07 20:32:51;;;;;;;4.63;1.63;;;21.40;99.90;;;;;;4935233;29;20224;-88
2022/06/07 20:35:18;;;;;;;4.23;2.20;;;21.30;99.90;;;;;;4935257;29;20178;-88
2022/06/07 20:37:46;;;;;;;4.43;2.07;;;21.40;99.90;;;;;;4933834;29;20312;-86
2022/06/07 20:40:30;;;;;;;3.20;1.73;;;21.40;99.90;;;;;;4935100;29;20206;-89
2022/06/07 20:42:56;;;;;;;3.03;1.90;;;21.00;99.90;;;;;;4935017;29;20207;-88
2022/06/07 20:45:22;;;;;;;3.53;2.00;;;20.80;99.90;;;;;;4934917;29;20191;-88
2022/06/07 20:47:47;;;;;;;2.87;1.67;;;20.80;99.90;;;;;;4935044;29;20246;-88
2022/06/07 20:50:17;;;;;;;2.97;1.77;;;20.80;99.90;;;;;;4931796;29;20195;-88
2022/06/07 20:52:43;;;;;;;4.07;1.90;;;20.90;99.90;;;;;;4934322;29;20180;-88
2022/06/07 20:55:11;;;;;;;3.40;1.97;;;20.90;99.90;;;;;;4929048;29;20187;-88
2022/06/07 20:57:37;;;;;;;3.53;2.03;;;20.90;99.90;;;;;;4934561;29;20216;-88
2022/06/07 21:00:09;;;;;;;3.27;1.93;;;20.80;99.90;;;;;;4929427;29;20278;-89
2022/06/07 21:02:35;;;;;;;3.53;2.10;;;20.80;99.90;;;;;;4928869;29;20195;-89
2022/06/07 21:05:01;;;;;;;3.43;2.20;;;20.70;99.90;;;;;;4934551;29;20194;-88
2022/06/07 21:07:26;;;;;;;3.00;1.50;;;20.80;99.90;;;;;;4929257;29;20176;-88
2022/06/07 21:09:52;;;;;;;4.03;2.07;;;20.70;99.90;;;;;;4934428;29;20290;-88
2022/06/07 21:12:18;;;;;;;2.17;1.60;;;20.70;99.90;;;;;;4934531;29;20194;-88
2022/06/07 21:14:43;;;;;;;2.17;1.47;;;20.70;99.90;;;;;;4933393;29;20658;-88
2022/06/07 21:17:11;;;;;;;5.67;2.23;;;20.60;99.90;;;;;;4939804;29;20284;-87
2022/06/07 21:19:39;;;;;;;3.63;1.60;;;20.50;99.90;;;;;;4952558;29;20198;-88
2022/06/07 21:22:05;;;;;;;3.20;1.83;;;20.60;99.90;;;;;;4934544;29;20222;-88
2022/06/07 21:24:31;;;;;;;1.57;1.40;;;20.60;99.90;;;;;;4917956;29;20222;-88
2022/06/07 21:26:57;;;;;;;3.47;1.90;;;20.70;99.90;;;;;;4932393;29;20206;-88
2022/06/07 21:29:23;;;;;;;4.33;2.10;;;20.70;99.90;;;;;;4941969;29;20254;-88
2022/06/07 21:31:49;;;;;;;7.33;2.07;;;20.50;99.90;;;;;;4954405;28;20674;-88
2022/06/07 21:34:15;;;;;;;3.47;1.70;;;20.40;99.90;;;;;;4936205;29;20180;-88
2022/06/07 21:36:41;;;;;;;3.57;1.67;;;20.20;99.90;;;;;;4935056;29;20215;-88
2022/06/07 21:39:10;;;;;;;7.07;3.63;;;20.10;99.90;;;;;;4933903;29;20230;-88
2022/06/07 21:41:36;;;;;;;8.40;4.43;;;20.00;99.90;;;;;;4934517;29;20596;-89
2022/06/07 21:44:01;;;;;;;18.57;15.30;;;20.10;99.90;;;;;;4934991;29;20182;-89
2022/06/07 21:46:28;;;;;;;9.57;7.37;;;20.20;99.90;;;;;;4923138;29;20281;-88
2022/06/07 21:48:54;;;;;;;8.03;6.30;;;20.20;99.90;;;;;;4916284;29;20697;-92
2022/06/07 21:51:19;;;;;;;4.63;3.63;;;20.10;99.90;;;;;;4919291;29;20230;-93
2022/06/07 21:53:47;;;;;;;3.27;2.47;;;20.10;99.90;;;;;;4919187;29;20187;-90
2022/06/07 21:56:12;;;;;;;4.33;2.40;;;20.00;99.90;;;;;;4903450;29;20187;-88
2022/06/07 21:58:38;;;;;;;7.93;4.83;;;20.20;99.90;;;;;;4919182;29;20227;-88
2022/06/07 22:01:04;;;;;;;5.30;3.30;;;20.40;99.90;;;;;;4919285;29;20185;-89
2022/06/07 22:03:30;;;;;;;3.77;2.67;;;20.30;99.90;;;;;;4919101;29;20191;-87
2022/06/07 22:05:59;;;;;;;4.53;2.23;;;20.10;99.90;;;;;;4936047;29;20439;-88
2022/06/07 22:08:27;;;;;;;2.93;2.00;;;20.10;99.90;;;;;;4922476;29;20199;-88
2022/06/07 22:10:54;;;;;;;4.80;1.73;;;20.00;99.90;;;;;;4921859;29;20195;-88
2022/06/07 22:13:25;;;;;;;5.90;2.30;;;19.90;99.90;;;;;;4938049;29;20190;-88
2022/06/07 22:15:52;;;;;;;3.67;1.80;;;19.80;99.90;;;;;;4953235;28;20257;-88
2022/06/07 22:18:19;;;;;;;4.93;1.70;;;19.80;99.90;;;;;;4919135;29;20215;-88
2022/06/07 22:20:45;;;;;;;3.23;1.73;;;20.00;99.90;;;;;;4935811;29;20212;-88
2022/06/07 22:23:11;;;;;;;2.90;1.80;;;19.90;99.90;;;;;;4937175;29;20224;-88
2022/06/07 22:25:37;;;;;;;4.80;2.10;;;19.80;99.90;;;;;;4936731;29;20335;-89
2022/06/07 22:28:05;;;;;;;5.10;2.00;;;19.80;99.90;;;;;;4937478;29;20274;-88
2022/06/07 22:30:31;;;;;;;3.37;1.87;;;19.80;99.90;;;;;;4937166;29;20585;-89
2022/06/07 22:32:57;;;;;;;5.17;1.83;;;19.80;99.90;;;;;;4937109;29;20187;-88
2022/06/07 22:35:25;;;;;;;2.50;1.73;;;19.90;99.90;;;;;;4936504;29;20193;-88
2022/06/07 22:37:51;;;;;;;3.30;1.90;;;19.80;99.90;;;;;;4937263;29;20255;-88
2022/06/07 22:40:20;;;;;;;2.63;1.77;;;19.70;99.90;;;;;;4937136;29;20265;-88
2022/06/07 22:42:46;;;;;;;2.87;1.80;;;19.80;99.90;;;;;;4936991;29;20222;-89
2022/06/07 22:45:15;;;;;;;3.80;1.60;;;19.80;99.90;;;;;;4937813;29;20195;-88
2022/06/07 22:47:40;;;;;;;2.97;1.50;;;19.80;99.90;;;;;;4936366;29;20189;-88
2022/06/07 22:50:09;;;;;;;2.93;1.37;;;19.90;99.90;;;;;;4943567;29;20190;-89
2022/06/07 22:53:00;;;;;;;6.07;1.73;;;19.90;99.90;;;;;;4928731;29;20191;-88
2022/06/07 22:55:40;;;;;;;8.00;1.90;;;19.90;99.90;;;;;;4946960;29;20186;-88
2022/06/07 22:58:18;;;;;;;3.20;1.60;;;19.80;99.90;;;;;;4942605;29;20687;-88
2022/06/07 23:00:46;;;;;;;2.50;1.60;;;19.60;99.90;;;;;;4935472;29;20179;-89
2022/06/07 23:03:22;;;;;;;4.97;2.23;;;19.60;99.90;;;;;;4920676;29;20611;-88
2022/06/07 23:05:48;;;;;;;3.40;1.60;;;19.70;99.90;;;;;;4937384;29;20185;-88
2022/06/07 23:08:14;;;;;;;3.10;1.40;;;19.60;99.90;;;;;;4936705;29;20262;-88
2022/06/07 23:10:39;;;;;;;3.03;1.60;;;19.70;99.90;;;;;;4937305;29;20691;-90
2022/06/07 23:13:06;;;;;;;3.07;1.50;;;20.00;99.90;;;;;;4936740;29;20211;-89
2022/06/07 23:18:17;;;;;;;2.97;1.30;;;19.90;99.90;;;;;;4937784;29;20220;-90
2022/06/07 23:20:43;;;;;;;2.73;1.70;;;19.80;99.90;;;;;;4936451;29;20202;-88
2022/06/07 23:23:09;;;;;;;3.23;1.50;;;19.80;99.90;;;;;;4936844;29;20190;-88
2022/06/07 23:25:34;;;;;;;3.43;1.50;;;19.70;99.90;;;;;;4936161;29;20185;-89
2022/06/07 23:28:00;;;;;;;4.40;1.57;;;19.70;99.90;;;;;;4920905;29;20283;-89
2022/06/07 23:30:26;;;;;;;6.20;1.57;;;19.80;99.90;;;;;;4936697;29;20181;-88
2022/06/07 23:32:52;;;;;;;2.73;1.27;;;20.00;99.90;;;;;;4935542;29;20193;-88
2022/06/07 23:35:18;;;;;;;3.17;1.23;;;19.80;99.90;;;;;;4935826;29;20181;-89
2022/06/07 23:37:44;;;;;;;2.70;1.60;;;19.60;99.90;;;;;;4935776;29;20242;-89
2022/06/07 23:40:14;;;;;;;2.37;1.23;;;19.50;99.90;;;;;;4936359;29;20274;-88
2022/06/07 23:42:40;;;;;;;4.23;1.70;;;19.50;99.90;;;;;;4951352;29;20329;-88
2022/06/07 23:45:07;;;;;;;2.77;1.50;;;19.60;99.90;;;;;;4936249;29;20198;-89
2022/06/07 23:47:43;;;;;;;1.97;1.30;;;19.40;99.90;;;;;;4935670;29;20186;-88
2022/06/07 23:50:28;;;;;;;2.33;1.50;;;19.30;99.90;;;;;;4936101;29;20712;-89
2022/06/07 23:53:01;;;;;;;2.87;1.63;;;19.50;99.90;;;;;;4920288;29;20184;-89
2022/06/07 23:55:27;;;;;;;2.27;1.30;;;19.50;99.90;;;;;;4935477;29;20214;-88
2022/06/07 23:57:53;;;;;;;3.40;1.70;;;19.30;99.90;;;;;;4935327;29;20302;-89
